Airport View

Enter AWOS ICAO identifier for current METAR.

ex. KFNL

KOSA 251555Z AUTO 08005KT 7SM OVC009 13/10 A3008 RMK AO1 T01330102

25 Oct 2020 16:17

Frequency: 119.775

Phone: 903-575-4027

Other Area AWOS: KJXI - KSLR - KJDD - KPRX

TAF AMD KGGG 251327Z 2513/2612 08006KT P6SM BKN008 OVC021 FM252100 14007KT P6SM BKN025 FM260300 11006KT P6SM OVC012 FM260600 10006KT P6SM OVC007